createdAt,value
2019-01-06T16:09:34.697Z,1029.84
2019-01-06T16:10:34.602Z,1029.80
2019-01-06T16:11:34.661Z,1029.82
2019-01-06T16:12:34.718Z,1029.82
2019-01-06T16:13:34.762Z,1029.82
2019-01-06T16:14:34.821Z,1029.84
2019-01-06T16:15:34.878Z,1029.81
2019-01-06T16:16:34.934Z,1029.87
2019-01-06T16:17:34.982Z,1029.86
2019-01-06T16:18:35.043Z,1029.87
2019-01-06T16:19:35.185Z,1029.89
2019-01-06T16:20:35.157Z,1029.93
2019-01-06T16:21:35.210Z,1029.90
2019-01-06T16:22:35.270Z,1029.93
2019-01-06T16:23:35.326Z,1029.89
2019-01-06T16:24:35.401Z,1029.89
2019-01-06T16:25:35.454Z,1029.91
2019-01-06T16:26:35.504Z,1029.92
2019-01-06T16:27:35.564Z,1029.92
2019-01-06T16:28:35.623Z,1029.94
2019-01-06T16:29:35.686Z,1029.97
2019-01-06T16:30:35.751Z,1030.03
2019-01-06T16:31:35.798Z,1030.00
2019-01-06T16:32:35.858Z,1030.03
2019-01-06T16:33:35.918Z,1030.00
2019-01-06T16:34:35.987Z,1030.02
2019-01-06T16:35:36.047Z,1030.00
2019-01-06T16:36:36.099Z,1030.02
2019-01-06T16:37:36.159Z,1030.03
2019-01-06T16:38:36.218Z,1030.05
2019-01-06T16:39:36.391Z,1030.05
2019-01-06T16:40:36.341Z,1030.05
2019-01-06T16:41:36.403Z,1030.03
2019-01-06T16:42:36.461Z,1030.06
2019-01-06T16:43:36.530Z,1030.08
2019-01-06T16:44:36.587Z,1030.07
2019-01-06T16:45:36.647Z,1030.08
2019-01-06T16:46:36.699Z,1030.10
2019-01-06T16:47:36.762Z,1030.11
2019-01-06T16:48:36.822Z,1030.13
2019-01-06T16:49:36.930Z,1030.14
2019-01-06T16:50:36.947Z,1030.08
2019-01-06T16:51:37.004Z,1030.13
2019-01-06T16:52:37.063Z,1030.10
2019-01-06T16:53:37.127Z,1030.08
2019-01-06T16:54:37.188Z,1030.07
2019-01-06T16:55:37.500Z,1030.09
2019-01-06T16:56:37.306Z,1030.10
2019-01-06T16:57:37.367Z,1030.07
2019-01-06T16:58:37.424Z,1030.04
2019-01-06T16:59:37.489Z,1030.04
2019-01-06T17:00:37.556Z,1030.08
2019-01-06T17:01:37.616Z,1030.08
2019-01-06T17:02:37.672Z,1030.11
2019-01-06T17:03:37.728Z,1030.10
2019-01-06T17:04:37.788Z,1030.13
2019-01-06T17:05:37.856Z,1030.15
2019-01-06T17:06:37.916Z,1030.15
2019-01-06T17:07:37.972Z,1030.18
2019-01-06T17:08:38.032Z,1030.14
2019-01-06T17:09:38.096Z,1030.19
2019-01-06T17:10:38.152Z,1030.17
2019-01-06T17:11:38.316Z,1030.21
2019-01-06T17:12:38.276Z,1030.18
2019-01-06T17:13:38.337Z,1030.16
2019-01-06T17:14:38.396Z,1030.15
2019-01-06T17:15:38.457Z,1030.11
2019-01-06T17:16:38.528Z,1030.14
2019-01-06T17:17:38.585Z,1030.12
2019-01-06T17:18:38.641Z,1030.12
2019-01-06T17:19:38.701Z,1030.10
2019-01-06T17:20:38.761Z,1030.12
2019-01-06T17:21:38.855Z,1030.12
2019-01-06T17:22:38.893Z,1030.13
2019-01-06T17:23:38.945Z,1030.13
2019-01-06T17:24:39.004Z,1030.14
2019-01-06T17:25:39.065Z,1030.13
2019-01-06T17:26:39.142Z,1030.14
2019-01-06T17:27:39.185Z,1030.13
2019-01-06T17:28:39.245Z,1030.16
2019-01-06T17:29:39.311Z,1030.10
2019-01-06T17:30:39.373Z,1030.15
2019-01-06T17:31:39.437Z,1030.14
2019-01-06T17:32:39.498Z,1030.15
2019-01-06T17:33:39.550Z,1030.10
2019-01-06T17:34:39.614Z,1030.14
2019-01-06T17:35:39.674Z,1030.10
2019-01-06T17:36:39.741Z,1030.15
2019-01-06T17:37:39.802Z,1030.13
2019-01-06T17:38:39.858Z,1030.08
2019-01-06T17:39:39.918Z,1030.10
2019-01-06T17:40:39.974Z,1030.11
2019-01-06T17:41:40.046Z,1030.13
2019-01-06T17:42:40.106Z,1030.15
2019-01-06T17:43:40.159Z,1030.14
2019-01-06T17:44:40.218Z,1030.15
2019-01-06T17:45:40.278Z,1030.15
2019-01-06T17:46:40.350Z,1030.14
2019-01-06T17:47:40.411Z,1030.16
2019-01-06T17:48:40.462Z,1030.19
2019-01-06T17:49:40.522Z,1030.17
2019-01-06T17:50:40.584Z,1030.17
2019-01-06T17:51:40.654Z,1030.21
2019-01-06T17:52:40.710Z,1030.23
2019-01-06T17:53:40.770Z,1030.20
2019-01-06T17:54:40.826Z,1030.19
2019-01-06T17:55:40.887Z,1030.20
2019-01-06T17:56:40.955Z,1030.19
2019-01-06T17:57:41.014Z,1030.18
2019-01-06T17:58:41.071Z,1030.24
2019-01-06T17:59:41.133Z,1030.24
2019-01-06T18:00:41.191Z,1030.24
2019-01-06T18:01:41.324Z,1030.25
2019-01-06T18:02:41.310Z,1030.25
2019-01-06T18:03:41.379Z,1030.25
2019-01-06T18:04:41.435Z,1030.25
2019-01-06T18:05:41.495Z,1030.29
2019-01-06T18:06:41.564Z,1030.27
2019-01-06T18:07:41.623Z,1030.32
2019-01-06T18:08:41.675Z,1030.31
2019-01-06T18:09:41.735Z,1030.28
2019-01-06T18:10:41.799Z,1030.28
2019-01-06T18:11:41.868Z,1030.29
2019-01-06T18:12:41.928Z,1030.30
2019-01-06T18:13:41.980Z,1030.31
2019-01-06T18:14:42.044Z,1030.29
2019-01-06T18:15:42.104Z,1030.32
2019-01-06T18:16:42.231Z,1030.34
2019-01-06T18:17:42.224Z,1030.36
2019-01-06T18:18:42.291Z,1030.35
2019-01-06T18:19:42.344Z,1030.39
2019-01-06T18:20:42.404Z,1030.44
2019-01-06T18:21:42.471Z,1030.40
2019-01-06T18:22:42.532Z,1030.42
2019-01-06T18:23:42.588Z,1030.44
2019-01-06T18:24:42.648Z,1030.44
2019-01-06T18:25:42.708Z,1030.42
2019-01-06T18:26:42.776Z,1030.41
2019-01-06T18:27:42.840Z,1030.42
2019-01-06T18:28:42.888Z,1030.41
2019-01-06T18:29:42.952Z,1030.45
2019-01-06T18:30:43.012Z,1030.40
2019-01-06T18:31:43.312Z,1030.40
2019-01-06T18:32:43.132Z,1030.40
2019-01-06T18:33:43.192Z,1030.42
2019-01-06T18:34:43.253Z,1030.40
2019-01-06T18:35:43.317Z,1030.42
2019-01-06T18:36:43.384Z,1030.45
2019-01-06T18:37:43.444Z,1030.48
2019-01-06T18:38:43.497Z,1030.47
2019-01-06T18:39:43.557Z,1030.46
2019-01-06T18:40:43.616Z,1030.48
2019-01-06T18:41:43.685Z,1030.48
2019-01-06T18:42:43.745Z,1030.48
2019-01-06T18:43:43.801Z,1030.49
2019-01-06T18:44:43.861Z,1030.49
2019-01-06T18:45:43.921Z,1030.49
2019-01-06T18:46:43.989Z,1030.47
2019-01-06T18:47:44.049Z,1030.48
2019-01-06T18:48:44.101Z,1030.46
2019-01-06T18:49:45.616Z,1030.46
2019-01-06T18:50:44.225Z,1030.48
2019-01-06T18:51:44.394Z,1030.50
2019-01-06T18:52:44.345Z,1030.47
2019-01-06T18:53:44.409Z,1030.49
2019-01-06T18:54:44.466Z,1030.46
2019-01-06T18:55:44.526Z,1030.47
2019-01-06T18:56:44.610Z,1030.48
2019-01-06T18:57:44.654Z,1030.48
2019-01-06T18:58:44.714Z,1030.49
2019-01-06T18:59:44.774Z,1030.52
2019-01-06T19:00:44.834Z,1030.48
2019-01-06T19:01:44.898Z,1030.50
2019-01-06T19:02:44.958Z,1030.47
2019-01-06T19:03:45.010Z,1030.50
2019-01-06T19:04:45.070Z,1030.48
2019-01-06T19:05:45.134Z,1030.48
2019-01-06T19:06:45.282Z,1030.49
2019-01-06T19:07:45.260Z,1030.51
2019-01-06T19:08:45.315Z,1030.49
2019-01-06T19:09:45.374Z,1030.48
2019-01-06T19:10:45.436Z,1030.48
2019-01-06T19:11:45.502Z,1030.50
2019-01-06T19:12:45.562Z,1030.51
2019-01-06T19:13:45.618Z,1030.53
2019-01-06T19:14:45.679Z,1030.53
2019-01-06T19:15:45.747Z,1030.54
2019-01-06T19:16:45.818Z,1030.59
2019-01-06T19:17:45.867Z,1030.55
2019-01-06T19:18:45.922Z,1030.60
2019-01-06T19:19:46.005Z,1030.56
2019-01-06T19:20:46.039Z,1030.55
2019-01-06T19:21:46.163Z,1030.58
2019-01-06T19:22:46.168Z,1030.55
2019-01-06T19:23:46.223Z,1030.59
2019-01-06T19:24:46.282Z,1030.55
2019-01-06T19:25:46.346Z,1030.59
2019-01-06T19:26:46.415Z,1030.62
2019-01-06T19:27:46.471Z,1030.55
2019-01-06T19:28:46.523Z,1030.60
2019-01-06T19:29:46.583Z,1030.57
2019-01-06T19:30:46.654Z,1030.59
2019-01-06T19:31:46.715Z,1030.56
2019-01-06T19:32:46.894Z,1030.56
2019-01-06T19:33:46.827Z,1030.55
2019-01-06T19:34:53.030Z,1030.58
2019-01-06T19:35:46.948Z,1030.59
2019-01-06T19:36:47.018Z,1030.55
2019-01-06T19:37:47.076Z,1030.53
2019-01-06T19:38:47.131Z,1030.54
2019-01-06T19:39:47.188Z,1030.52
2019-01-06T19:40:47.249Z,1030.54
2019-01-06T19:41:47.356Z,1030.51
2019-01-06T19:42:47.372Z,1030.57
2019-01-06T19:43:47.432Z,1030.53
2019-01-06T19:44:47.501Z,1030.54
2019-01-06T19:45:47.552Z,1030.54
2019-01-06T19:46:47.620Z,1030.52
2019-01-06T19:47:47.680Z,1030.58
2019-01-06T19:48:47.736Z,1030.56
2019-01-06T19:49:47.792Z,1030.58
2019-01-06T19:50:47.858Z,1030.56
2019-01-06T19:51:47.921Z,1030.54
2019-01-06T19:52:49.266Z,1030.55
2019-01-06T19:53:48.032Z,1030.53
2019-01-06T19:54:48.097Z,1030.55
2019-01-06T19:55:48.153Z,1030.52
2019-01-06T19:56:48.241Z,1030.54
2019-01-06T19:57:48.273Z,1030.53
2019-01-06T19:58:48.332Z,1030.56
2019-01-06T19:59:48.401Z,1030.56
2019-01-06T20:00:48.452Z,1030.56
2019-01-06T20:01:48.525Z,1030.55
2019-01-06T20:02:48.581Z,1030.58
2019-01-06T20:03:48.637Z,1030.52
2019-01-06T20:04:48.697Z,1030.51
2019-01-06T20:05:48.757Z,1030.53
2019-01-06T20:06:48.825Z,1030.52
2019-01-06T20:07:48.886Z,1030.47
2019-01-06T20:08:48.937Z,1030.54
2019-01-06T20:09:48.997Z,1030.50
2019-01-06T20:10:49.057Z,1030.49
2019-01-06T20:11:49.214Z,1030.49
2019-01-06T20:12:49.178Z,1030.51
2019-01-06T20:13:49.241Z,1030.55
2019-01-06T20:14:49.302Z,1030.52
2019-01-06T20:15:49.361Z,1030.56
2019-01-06T20:16:49.426Z,1030.52
2019-01-06T20:17:49.498Z,1030.50
2019-01-06T20:18:49.544Z,1030.50
2019-01-06T20:19:49.602Z,1030.54
2019-01-06T20:20:49.662Z,1030.54
2019-01-06T20:21:49.730Z,1030.57
2019-01-06T20:22:49.818Z,1030.60
2019-01-06T20:23:49.842Z,1030.60
2019-01-06T20:24:49.902Z,1030.59
2019-01-06T20:25:49.962Z,1030.61
2019-01-06T20:26:50.054Z,1030.63
2019-01-06T20:27:50.097Z,1030.61
2019-01-06T20:28:50.142Z,1030.61
2019-01-06T20:29:50.207Z,1030.59
2019-01-06T20:30:50.267Z,1030.64
2019-01-06T20:31:50.335Z,1030.63
2019-01-06T20:32:50.393Z,1030.64
2019-01-06T20:33:50.447Z,1030.64
2019-01-06T20:34:50.506Z,1030.63
2019-01-06T20:35:50.568Z,1030.64
2019-01-06T20:36:50.637Z,1030.67
2019-01-06T20:37:50.695Z,1030.66
2019-01-06T20:38:50.751Z,1030.71
2019-01-06T20:39:50.807Z,1030.66
2019-01-06T20:40:51.439Z,1030.69
2019-01-06T20:41:58.575Z,1030.71
2019-01-06T20:42:50.995Z,1030.71
2019-01-06T20:43:51.051Z,1030.69
2019-01-06T20:44:51.115Z,1030.73
2019-01-06T20:45:51.171Z,1030.74
2019-01-06T20:46:51.321Z,1030.76
2019-01-06T20:47:51.291Z,1030.72
2019-01-06T20:48:51.351Z,1030.73
2019-01-06T20:49:51.411Z,1030.77
2019-01-06T20:50:51.471Z,1030.80
2019-01-06T20:51:51.544Z,1030.77
2019-01-06T20:52:51.599Z,1030.79
2019-01-06T20:53:51.652Z,1030.79
2019-01-06T20:54:51.720Z,1030.80
2019-01-06T20:55:51.776Z,1030.80
2019-01-06T20:56:51.840Z,1030.82
2019-01-06T20:57:51.904Z,1030.82
2019-01-06T20:58:51.957Z,1030.81
2019-01-06T20:59:52.016Z,1030.81
2019-01-06T21:00:52.077Z,1030.77
2019-01-06T21:01:52.136Z,1030.78
2019-01-06T21:02:52.288Z,1030.76
2019-01-06T21:03:52.256Z,1030.73
2019-01-06T21:04:52.536Z,1030.74
2019-01-06T21:05:52.376Z,1030.76
2019-01-06T21:06:52.445Z,1030.77
2019-01-06T21:07:52.512Z,1030.77
2019-01-06T21:08:52.569Z,1030.79
2019-01-06T21:09:52.621Z,1030.79
2019-01-06T21:10:52.693Z,1030.76
2019-01-06T21:11:52.741Z,1030.79
2019-01-06T21:12:52.809Z,1030.79
2019-01-06T21:13:52.869Z,1030.83
2019-01-06T21:14:52.933Z,1030.83
2019-01-06T21:15:52.985Z,1030.81
2019-01-06T21:16:53.045Z,1030.82
2019-01-06T21:17:53.129Z,1030.82
2019-01-06T21:18:53.166Z,1030.81
2019-01-06T21:19:53.225Z,1030.79
2019-01-06T21:20:53.285Z,1030.79
2019-01-06T21:21:53.365Z,1030.75
2019-01-06T21:22:53.449Z,1030.79
2019-01-06T21:23:53.473Z,1030.78
2019-01-06T21:24:53.528Z,1030.79
2019-01-06T21:25:53.590Z,1030.82
2019-01-06T21:26:55.293Z,1030.86
2019-01-06T21:27:53.717Z,1030.84
2019-01-06T21:28:53.777Z,1030.87
2019-01-06T21:29:53.829Z,1030.89
2019-01-06T21:30:53.895Z,1030.91
2019-01-06T21:31:53.952Z,1030.87
2019-01-06T21:32:54.022Z,1030.87
2019-01-06T21:33:54.090Z,1030.85
2019-01-06T21:34:54.134Z,1030.87
2019-01-06T21:35:54.194Z,1030.88
2019-01-06T21:36:54.255Z,1030.88
2019-01-06T21:37:54.344Z,1030.92
2019-01-06T21:38:54.614Z,1030.94
2019-01-06T21:39:54.438Z,1030.90
2019-01-06T21:40:54.494Z,1030.92
2019-01-06T21:41:54.555Z,1030.91
2019-01-06T21:42:54.614Z,1030.93
2019-01-06T21:43:54.682Z,1030.90
2019-01-06T21:44:54.743Z,1030.97
2019-01-06T21:45:54.798Z,1030.94
2019-01-06T21:46:54.862Z,1030.99
2019-01-06T21:47:54.918Z,1030.95
2019-01-06T21:48:54.986Z,1030.98
2019-01-06T21:49:55.046Z,1030.96
2019-01-06T21:50:55.099Z,1030.96
2019-01-06T21:51:55.163Z,1030.97
2019-01-06T21:52:56.067Z,1030.93
2019-01-06T21:54:03.656Z,1030.94
2019-01-06T21:54:55.338Z,1030.92
2019-01-06T21:55:55.399Z,1030.91
2019-01-06T21:56:55.459Z,1030.88
2019-01-06T21:57:55.519Z,1030.90
2019-01-06T21:58:55.587Z,1030.85
2019-01-06T21:59:55.655Z,1030.85
2019-01-06T22:00:55.703Z,1030.85
2019-01-06T22:01:55.767Z,1030.87
2019-01-06T22:02:55.824Z,1030.84
2019-01-06T22:03:55.893Z,1030.81
2019-01-06T22:04:55.952Z,1030.80
2019-01-06T22:05:56.008Z,1030.85
2019-01-06T22:06:56.063Z,1030.81
2019-01-06T22:07:56.123Z,1030.85
2019-01-06T22:08:56.367Z,1030.86
2019-01-06T22:09:56.340Z,1030.86
2019-01-06T22:10:56.303Z,1030.87
2019-01-06T22:11:56.364Z,1030.88
2019-01-06T22:12:56.423Z,1030.90
2019-01-06T22:13:56.495Z,1030.93
2019-01-06T22:14:56.552Z,1030.90
2019-01-06T22:15:56.608Z,1030.90
2019-01-06T22:16:56.668Z,1030.92
2019-01-06T22:17:56.728Z,1030.90
2019-01-06T22:19:01.368Z,1030.90
2019-01-06T22:19:56.848Z,1030.92
2019-01-06T22:20:56.908Z,1030.91
2019-01-06T22:21:56.967Z,1030.87
2019-01-06T22:22:57.028Z,1030.87
2019-01-06T22:23:57.090Z,1030.85
2019-01-06T22:24:57.172Z,1030.84
2019-01-06T22:25:57.212Z,1030.81
2019-01-06T22:26:57.268Z,1030.78
2019-01-06T22:27:57.332Z,1030.81
2019-01-06T22:28:57.389Z,1030.81
2019-01-06T22:29:57.457Z,1030.78
2019-01-06T22:30:57.526Z,1030.75
2019-01-06T22:31:57.573Z,1030.78
2019-01-06T22:32:57.633Z,1030.75
2019-01-06T22:33:57.692Z,1030.78
2019-01-06T22:34:57.761Z,1030.78
2019-01-06T22:35:57.825Z,1030.78
2019-01-06T22:36:57.873Z,1030.75
2019-01-06T22:37:57.933Z,1030.73
2019-01-06T22:38:57.997Z,1030.76
2019-01-06T22:39:58.061Z,1030.78
2019-01-06T22:40:58.121Z,1030.75
2019-01-06T22:41:58.173Z,1030.76
2019-01-06T22:42:58.233Z,1030.73
2019-01-06T22:43:58.309Z,1030.70
2019-01-06T22:44:58.361Z,1030.70
2019-01-06T22:45:58.425Z,1030.76
2019-01-06T22:46:58.502Z,1030.76
2019-01-06T22:47:58.542Z,1030.75
2019-01-06T22:48:58.598Z,1030.74
